Time;durP1;ratioP1;P1;durP2;ratioP2;P2;SDS_P1;SDS_P2;PMS_P1;PMS_P2;Temp;Humidity;BMP_temperature;BMP_pressure;BME280_temperature;BME280_humidity;BME280_pressure;Samples;Min_cycle;Max_cycle;Signal;HPM_P1;HPM_P2
2024/03/07 00:00:31;;;;;;;25.30;14.83;;;5.00;99.90;;;;;;4163832;28;20029;-59
2024/03/07 00:02:34;;;;;;;25.57;14.40;;;5.00;99.90;;;;;;4163061;28;20796;-57
2024/03/07 00:04:36;;;;;;;26.57;14.17;;;5.00;99.90;;;;;;4163509;28;20088;-59
2024/03/07 00:06:37;;;;;;;27.90;14.57;;;5.00;99.90;;;;;;4162626;28;20271;-59
2024/03/07 00:08:38;;;;;;;23.67;13.10;;;5.00;99.90;;;;;;4162421;28;20041;-57
2024/03/07 00:10:39;;;;;;;26.07;13.83;;;4.90;99.90;;;;;;4162913;28;20830;-53
2024/03/07 00:12:40;;;;;;;23.60;13.27;;;4.90;99.90;;;;;;4161839;28;20825;-55
2024/03/07 00:14:42;;;;;;;27.43;14.20;;;4.80;99.90;;;;;;4162788;28;20083;-58
2024/03/07 00:16:43;;;;;;;26.70;14.63;;;4.80;99.90;;;;;;4161624;28;20345;-59
2024/03/07 00:18:44;;;;;;;25.87;14.07;;;4.80;99.90;;;;;;4162930;28;20295;-61
2024/03/07 00:20:45;;;;;;;27.83;16.17;;;4.80;99.90;;;;;;4144314;28;20264;-60
2024/03/07 00:22:46;;;;;;;24.23;13.70;;;4.80;99.90;;;;;;4163243;28;20267;-54
2024/03/07 00:24:48;;;;;;;29.40;13.97;;;4.80;99.90;;;;;;4162529;28;20317;-56
2024/03/07 00:26:52;;;;;;;26.10;13.00;;;4.80;99.90;;;;;;4162162;28;20344;-56
2024/03/07 00:28:53;;;;;;;26.83;13.83;;;4.80;99.90;;;;;;4162531;28;20300;-57
2024/03/07 00:30:55;;;;;;;25.27;13.90;;;4.80;99.90;;;;;;4162651;28;20333;-59
2024/03/07 00:32:57;;;;;;;26.97;15.17;;;4.70;99.90;;;;;;4162442;28;20262;-54
2024/03/07 00:34:59;;;;;;;25.33;14.80;;;4.70;99.90;;;;;;4163193;28;20259;-54
2024/03/07 00:37:00;;;;;;;24.90;14.07;;;4.70;99.90;;;;;;4161584;28;21039;-56
2024/03/07 00:39:01;;;;;;;24.53;13.77;;;4.80;99.90;;;;;;4162792;28;20718;-59
2024/03/07 00:41:03;;;;;;;26.50;15.23;;;4.70;99.90;;;;;;4163241;28;20332;-57
2024/03/07 00:43:05;;;;;;;24.90;14.27;;;4.70;99.90;;;;;;4162567;28;20731;-55
2024/03/07 00:45:07;;;;;;;28.73;15.37;;;4.80;99.90;;;;;;4163523;28;20275;-59
2024/03/07 00:47:08;;;;;;;26.90;14.97;;;4.80;99.90;;;;;;4161565;28;20674;-60
2024/03/07 00:49:09;;;;;;;30.40;16.10;;;4.70;99.90;;;;;;4163355;28;20275;-57
2024/03/07 00:51:11;;;;;;;32.83;17.47;;;4.70;99.90;;;;;;4162560;28;20742;-63
2024/03/07 00:53:12;;;;;;;30.27;16.83;;;4.80;99.90;;;;;;4163392;28;20332;-59
2024/03/07 00:55:14;;;;;;;34.37;18.13;;;4.70;99.90;;;;;;4161935;28;20313;-61
2024/03/07 00:57:16;;;;;;;33.00;15.90;;;4.70;99.90;;;;;;4161829;28;20336;-60
2024/03/07 00:59:17;;;;;;;33.33;16.60;;;4.80;99.90;;;;;;4161682;28;20298;-61
2024/03/07 01:01:19;;;;;;;26.27;16.40;;;4.70;99.90;;;;;;4162469;28;20275;-60
2024/03/07 01:03:20;;;;;;;29.53;16.23;;;4.70;99.90;;;;;;4161979;28;20658;-53
2024/03/07 01:05:21;;;;;;;31.93;16.40;;;4.70;99.90;;;;;;4162084;28;20324;-61
2024/03/07 01:07:23;;;;;;;31.83;17.43;;;4.70;99.90;;;;;;4161479;28;20332;-61
2024/03/07 01:09:28;;;;;;;32.33;17.47;;;4.70;99.90;;;;;;4161277;28;20282;-62
2024/03/07 01:11:29;;;;;;;28.93;15.53;;;4.70;99.90;;;;;;4162259;28;20719;-56
2024/03/07 01:13:30;;;;;;;32.87;18.93;;;4.70;99.90;;;;;;4160905;28;20317;-61
2024/03/07 01:15:34;;;;;;;34.87;16.97;;;4.60;99.90;;;;;;4162508;28;20506;-60
2024/03/07 01:17:35;;;;;;;30.93;17.10;;;4.60;99.90;;;;;;4161562;28;20279;-61
2024/03/07 01:19:37;;;;;;;31.27;17.23;;;4.60;99.90;;;;;;4162138;28;20759;-54
2024/03/07 01:21:38;;;;;;;31.57;17.13;;;4.60;99.90;;;;;;4160548;28;20340;-56
2024/03/07 01:23:40;;;;;;;30.87;16.70;;;4.60;99.90;;;;;;4161935;28;20333;-59
2024/03/07 01:25:41;;;;;;;30.27;17.57;;;4.60;99.90;;;;;;4160794;28;20386;-61
2024/03/07 01:27:42;;;;;;;30.53;16.57;;;4.60;99.90;;;;;;4161777;28;20836;-56
2024/03/07 01:29:44;;;;;;;34.00;16.30;;;4.60;99.90;;;;;;4160333;28;20307;-56
2024/03/07 01:31:45;;;;;;;30.23;16.23;;;4.60;99.90;;;;;;4161729;28;20271;-57
2024/03/07 01:33:47;;;;;;;26.47;14.43;;;4.60;99.90;;;;;;4160874;28;20271;-58
2024/03/07 01:35:48;;;;;;;32.27;17.63;;;4.60;99.90;;;;;;4161107;28;20263;-60
2024/03/07 01:37:49;;;;;;;31.80;16.90;;;4.70;99.90;;;;;;4160492;28;20309;-60
2024/03/07 01:39:51;;;;;;;28.53;16.23;;;4.70;99.90;;;;;;4161208;28;20287;-55
2024/03/07 01:41:52;;;;;;;24.07;14.50;;;4.60;99.90;;;;;;4161956;28;20259;-60
2024/03/07 01:43:53;;;;;;;29.37;16.93;;;4.60;99.90;;;;;;4160787;28;20274;-62
2024/03/07 01:45:58;;;;;;;28.40;16.00;;;4.70;99.90;;;;;;4143187;28;20363;-62
2024/03/07 01:48:00;;;;;;;30.40;15.90;;;4.70;99.90;;;;;;4161600;28;20316;-57
2024/03/07 01:50:01;;;;;;;28.17;16.77;;;4.70;99.90;;;;;;4161912;28;20327;-61
2024/03/07 01:52:05;;;;;;;33.43;17.27;;;4.60;99.90;;;;;;4160534;28;20794;-59
2024/03/07 01:54:09;;;;;;;33.73;16.83;;;4.60;99.90;;;;;;4159346;28;20544;-62
2024/03/07 01:56:11;;;;;;;31.00;17.10;;;4.60;99.90;;;;;;4160166;28;20620;-61
2024/03/07 01:58:17;;;;;;;34.07;15.23;;;4.60;99.90;;;;;;4161273;28;20303;-52
2024/03/07 02:00:18;;;;;;;30.33;15.63;;;4.60;99.90;;;;;;4160076;28;20049;-54
2024/03/07 02:02:20;;;;;;;32.53;16.13;;;4.60;99.90;;;;;;4162051;28;20337;-53
2024/03/07 02:04:21;;;;;;;29.13;15.47;;;4.60;99.90;;;;;;4160166;28;20313;-56
2024/03/07 02:06:24;;;;;;;27.97;14.90;;;4.60;99.90;;;;;;4161650;28;20275;-60
2024/03/07 02:08:25;;;;;;;31.03;16.07;;;4.50;99.90;;;;;;4160213;28;20801;-58
2024/03/07 02:10:26;;;;;;;25.67;14.80;;;4.50;99.90;;;;;;4143196;28;20322;-59
2024/03/07 02:12:29;;;;;;;29.20;15.90;;;4.50;99.90;;;;;;4161334;28;20026;-57
2024/03/07 02:14:30;;;;;;;28.87;16.97;;;4.50;99.90;;;;;;4161832;28;20293;-55
2024/03/07 02:16:32;;;;;;;28.43;15.43;;;4.50;99.90;;;;;;4160499;28;20309;-60
2024/03/07 02:18:35;;;;;;;29.00;15.67;;;4.50;99.90;;;;;;4161213;28;20793;-60
2024/03/07 02:20:36;;;;;;;30.37;16.43;;;4.50;99.90;;;;;;4161235;28;20271;-54
2024/03/07 02:22:37;;;;;;;27.70;15.20;;;4.50;99.90;;;;;;4160376;28;20042;-58
2024/03/07 02:24:39;;;;;;;27.40;15.93;;;4.40;99.90;;;;;;4161791;28;21669;-58
2024/03/07 02:26:40;;;;;;;27.83;15.57;;;4.40;99.90;;;;;;4159092;28;20785;-58
2024/03/07 02:28:41;;;;;;;33.30;16.57;;;4.40;99.90;;;;;;4161346;28;20271;-60
2024/03/07 02:30:45;;;;;;;28.60;15.50;;;4.40;99.90;;;;;;4160330;28;20275;-55
2024/03/07 02:32:51;;;;;;;29.40;15.60;;;4.40;99.90;;;;;;4161655;28;20738;-57
2024/03/07 02:34:53;;;;;;;27.77;14.47;;;4.40;99.90;;;;;;4160738;28;20325;-58
2024/03/07 02:36:54;;;;;;;30.73;15.47;;;4.40;99.90;;;;;;4161150;28;20290;-54
2024/03/07 02:38:55;;;;;;;26.93;14.63;;;4.40;99.90;;;;;;4159888;28;20298;-57
2024/03/07 02:40:58;;;;;;;29.47;14.77;;;4.40;99.90;;;;;;4161520;28;20321;-56
2024/03/07 02:43:00;;;;;;;30.87;16.60;;;4.40;99.90;;;;;;4160139;28;20275;-57
2024/03/07 02:45:01;;;;;;;30.07;14.60;;;4.40;99.90;;;;;;4161240;28;20704;-59
2024/03/07 02:47:03;;;;;;;28.10;15.23;;;4.40;99.90;;;;;;4160585;28;20267;-53
2024/03/07 02:49:05;;;;;;;30.00;15.50;;;4.30;99.90;;;;;;4143217;28;20358;-57
2024/03/07 02:51:06;;;;;;;28.90;15.17;;;4.30;99.90;;;;;;4161378;28;20275;-56
2024/03/07 02:53:07;;;;;;;30.97;16.47;;;4.30;99.90;;;;;;4161261;28;20282;-56
2024/03/07 02:55:10;;;;;;;29.10;15.23;;;4.30;99.90;;;;;;4161971;28;20393;-60
2024/03/07 02:57:11;;;;;;;28.87;16.93;;;4.30;99.90;;;;;;4159909;28;21190;-57
2024/03/07 02:59:13;;;;;;;29.10;16.03;;;4.30;99.90;;;;;;4160551;28;20298;-54
2024/03/07 03:01:14;;;;;;;27.90;14.97;;;4.30;99.90;;;;;;4159022;28;20774;-52
2024/03/07 03:03:15;;;;;;;34.63;17.53;;;4.30;99.90;;;;;;4161154;28;20282;-57
2024/03/07 03:05:18;;;;;;;31.43;16.27;;;4.30;99.90;;;;;;4159647;28;20654;-56
2024/03/07 03:07:19;;;;;;;29.17;16.80;;;4.30;99.90;;;;;;4160938;28;20341;-61
2024/03/07 03:09:21;;;;;;;32.57;16.70;;;4.30;99.90;;;;;;4159913;28;20324;-58
2024/03/07 03:11:22;;;;;;;29.13;15.03;;;4.30;99.90;;;;;;4160754;28;20690;-60
2024/03/07 03:13:27;;;;;;;30.67;15.90;;;4.30;99.90;;;;;;4160061;28;20731;-55
2024/03/07 03:15:29;;;;;;;27.30;16.20;;;4.30;99.90;;;;;;4161277;28;20279;-55
2024/03/07 03:17:30;;;;;;;28.17;15.33;;;4.30;99.90;;;;;;4159933;28;20324;-56
2024/03/07 03:19:31;;;;;;;29.17;15.30;;;4.30;99.90;;;;;;4160096;28;20356;-52
2024/03/07 03:21:33;;;;;;;26.83;15.13;;;4.30;99.90;;;;;;4161389;28;20651;-60
2024/03/07 03:23:35;;;;;;;28.23;14.77;;;4.30;99.90;;;;;;4163116;28;20372;-52
2024/03/07 03:25:37;;;;;;;26.43;14.80;;;4.30;99.90;;;;;;4163558;28;20275;-58
2024/03/07 03:27:40;;;;;;;28.93;15.80;;;4.30;99.90;;;;;;4163853;28;20325;-52
2024/03/07 03:29:41;;;;;;;28.50;16.03;;;4.30;99.90;;;;;;4164332;28;20657;-55
2024/03/07 03:31:42;;;;;;;26.47;14.80;;;4.40;99.90;;;;;;4162970;28;20267;-54
2024/03/07 03:33:43;;;;;;;24.97;13.20;;;4.30;99.90;;;;;;4163877;28;20329;-60
2024/03/07 03:35:44;;;;;;;25.30;13.43;;;4.40;99.90;;;;;;4162903;28;20653;-54
2024/03/07 03:37:46;;;;;;;24.90;12.80;;;4.40;99.90;;;;;;4163979;28;20294;-59
2024/03/07 03:39:47;;;;;;;20.87;10.93;;;4.40;99.90;;;;;;4162684;28;20340;-56
2024/03/07 03:41:48;;;;;;;21.67;12.77;;;4.40;99.90;;;;;;4163795;28;20275;-52
2024/03/07 03:43:49;;;;;;;22.27;12.30;;;4.40;99.90;;;;;;4163171;28;20328;-52
2024/03/07 03:45:51;;;;;;;22.37;13.00;;;4.40;99.90;;;;;;4163806;28;20329;-57
2024/03/07 03:47:52;;;;;;;20.33;11.47;;;4.40;99.90;;;;;;4162764;28;20650;-60
2024/03/07 03:49:54;;;;;;;22.13;12.63;;;4.40;99.90;;;;;;4163106;28;20747;-60
2024/03/07 03:51:55;;;;;;;20.80;11.47;;;4.40;99.90;;;;;;4163248;28;20259;-57
2024/03/07 03:53:56;;;;;;;28.33;12.43;;;4.40;99.90;;;;;;4163026;28;20403;-59
2024/03/07 03:55:58;;;;;;;21.77;11.83;;;4.40;99.90;;;;;;4163363;28;20325;-58
2024/03/07 03:58:00;;;;;;;22.67;12.60;;;4.30;99.90;;;;;;4162357;28;20340;-58
2024/03/07 04:00:09;;;;;;;23.63;12.40;;;4.40;99.90;;;;;;4163778;28;20344;-61
2024/03/07 04:02:11;;;;;;;22.23;12.70;;;4.30;99.90;;;;;;4161821;28;20332;-59
2024/03/07 04:04:12;;;;;;;23.43;12.63;;;4.30;99.90;;;;;;4162829;28;20251;-54
2024/03/07 04:06:14;;;;;;;25.33;14.13;;;4.30;99.90;;;;;;4162087;28;20619;-53
2024/03/07 04:08:15;;;;;;;25.90;13.70;;;4.30;99.90;;;;;;4164024;28;20273;-59
2024/03/07 04:10:18;;;;;;;24.70;13.87;;;4.20;99.90;;;;;;4162649;28;20639;-54
2024/03/07 04:12:19;;;;;;;24.53;13.83;;;4.20;99.90;;;;;;4162690;28;20679;-54
2024/03/07 04:14:20;;;;;;;29.17;16.70;;;4.20;99.90;;;;;;4162767;28;20313;-54
2024/03/07 04:16:22;;;;;;;30.27;15.80;;;4.20;99.90;;;;;;4163722;28;20330;-54
2024/03/07 04:18:26;;;;;;;28.17;16.90;;;4.10;99.90;;;;;;4162803;28;20324;-48
2024/03/07 04:20:28;;;;;;;35.83;15.97;;;4.10;99.90;;;;;;4163413;28;20342;-59
2024/03/07 04:22:29;;;;;;;43.47;16.83;;;4.10;99.90;;;;;;4161969;28;20270;-54
2024/03/07 04:24:33;;;;;;;35.27;16.43;;;4.00;99.90;;;;;;4161830;28;20259;-55
2024/03/07 04:26:34;;;;;;;29.67;16.47;;;4.00;99.90;;;;;;4161221;28;20341;-56
2024/03/07 04:28:36;;;;;;;31.57;16.93;;;3.90;99.90;;;;;;4162435;28;20324;-58
2024/03/07 04:30:37;;;;;;;32.53;17.43;;;4.00;99.90;;;;;;4162289;28;20308;-59
2024/03/07 04:32:38;;;;;;;33.93;17.90;;;3.90;99.90;;;;;;4162205;28;20802;-59
2024/03/07 04:34:40;;;;;;;30.27;17.23;;;3.90;99.90;;;;;;4163004;28;20731;-53
2024/03/07 04:36:41;;;;;;;28.90;15.87;;;4.00;99.90;;;;;;4161456;28;20283;-57
2024/03/07 04:38:45;;;;;;;30.17;14.77;;;3.90;99.90;;;;;;4162426;28;20314;-60
2024/03/07 04:40:46;;;;;;;25.90;15.33;;;3.90;99.90;;;;;;4161784;28;20278;-61
2024/03/07 04:42:49;;;;;;;30.80;16.53;;;3.90;99.90;;;;;;4163470;28;20337;-56
2024/03/07 04:44:51;;;;;;;28.83;15.13;;;3.90;99.90;;;;;;4161395;28;20373;-53
2024/03/07 04:46:56;;;;;;;25.17;13.93;;;3.90;99.90;;;;;;4162864;28;20345;-56
2024/03/07 04:48:57;;;;;;;26.17;13.90;;;3.80;99.90;;;;;;4161178;28;20283;-56
2024/03/07 04:50:59;;;;;;;28.00;15.37;;;3.90;99.90;;;;;;4162573;28;20329;-54
2024/03/07 04:53:00;;;;;;;28.50;15.73;;;3.90;99.90;;;;;;4160343;28;20271;-55
2024/03/07 04:55:01;;;;;;;26.23;14.73;;;3.90;99.90;;;;;;4161900;28;20813;-57
2024/03/07 04:57:03;;;;;;;24.93;14.27;;;3.90;99.90;;;;;;4160782;28;20778;-53
2024/03/07 04:59:04;;;;;;;25.07;13.80;;;3.90;99.90;;;;;;4161083;28;20439;-57
2024/03/07 05:01:05;;;;;;;27.93;15.10;;;3.90;99.90;;;;;;4160391;28;20271;-52
2024/03/07 05:03:06;;;;;;;29.63;15.80;;;3.90;99.90;;;;;;4161357;28;20337;-53
2024/03/07 05:05:08;;;;;;;25.50;14.43;;;3.90;99.90;;;;;;4161229;28;20305;-54
2024/03/07 05:07:09;;;;;;;25.83;15.13;;;3.90;99.90;;;;;;4161729;28;20828;-59
2024/03/07 05:09:22;;;;;;;26.93;14.20;;;3.90;99.90;;;;;;4161367;28;20275;-55
2024/03/07 05:11:24;;;;;;;24.03;13.93;;;3.90;99.90;;;;;;4160790;28;20332;-55
2024/03/07 05:13:25;;;;;;;28.00;15.30;;;3.90;99.90;;;;;;4162523;28;20373;-55
2024/03/07 05:15:26;;;;;;;31.57;15.70;;;3.90;99.90;;;;;;4161107;28;20259;-53
2024/03/07 05:17:28;;;;;;;28.27;15.47;;;3.90;99.90;;;;;;4161357;28;20323;-54
2024/03/07 05:19:30;;;;;;;28.83;15.77;;;4.00;99.90;;;;;;4160107;28;20679;-55
2024/03/07 05:21:37;;;;;;;31.20;15.77;;;3.90;99.90;;;;;;4160067;28;20310;-52
2024/03/07 05:23:38;;;;;;;27.30;14.10;;;3.90;99.90;;;;;;4160378;28;20329;-54
2024/03/07 05:25:40;;;;;;;27.20;14.30;;;4.00;99.90;;;;;;4162314;28;20328;-54
2024/03/07 05:27:42;;;;;;;26.70;15.20;;;4.00;99.90;;;;;;4160301;28;20766;-55
2024/03/07 05:29:44;;;;;;;27.67;14.73;;;3.90;99.90;;;;;;4162199;28;20283;-53
2024/03/07 05:31:48;;;;;;;26.57;15.00;;;4.00;99.90;;;;;;4160284;28;20670;-62
2024/03/07 05:33:50;;;;;;;31.17;15.87;;;4.00;99.90;;;;;;4161368;28;20337;-61
2024/03/07 05:36:02;;;;;;;24.60;14.73;;;4.00;99.90;;;;;;4161125;28;20246;-57
2024/03/07 05:38:04;;;;;;;27.63;15.43;;;4.00;99.90;;;;;;4161091;28;20325;-57
2024/03/07 05:40:07;;;;;;;26.83;14.67;;;4.00;99.90;;;;;;4160457;28;20357;-58
2024/03/07 05:42:13;;;;;;;25.90;15.53;;;4.00;99.90;;;;;;4160231;28;20278;-56
2024/03/07 05:44:15;;;;;;;29.33;15.77;;;4.00;99.90;;;;;;4160256;28;20235;-59
2024/03/07 05:46:16;;;;;;;26.67;15.37;;;4.00;99.90;;;;;;4161342;28;20266;-56
2024/03/07 05:48:17;;;;;;;23.80;14.47;;;4.00;99.90;;;;;;4160890;28;20778;-57
2024/03/07 05:50:18;;;;;;;23.87;15.17;;;4.00;99.90;;;;;;4161142;28;20308;-59
2024/03/07 05:52:20;;;;;;;26.63;15.03;;;4.00;99.90;;;;;;4161561;28;20271;-53
2024/03/07 05:54:21;;;;;;;25.23;14.37;;;4.00;99.90;;;;;;4158567;28;20294;-55
2024/03/07 05:56:23;;;;;;;26.50;15.63;;;4.10;99.90;;;;;;4161171;28;20275;-51
2024/03/07 05:58:24;;;;;;;29.50;14.93;;;4.10;99.90;;;;;;4160771;28;20328;-59
2024/03/07 06:00:27;;;;;;;26.33;15.13;;;4.10;99.90;;;;;;4161869;28;20763;-58
2024/03/07 06:02:29;;;;;;;25.90;13.33;;;4.10;99.90;;;;;;4156754;28;20263;-58
2024/03/07 06:04:31;;;;;;;23.47;14.23;;;4.10;99.90;;;;;;4151398;28;20324;-59
2024/03/07 06:06:34;;;;;;;31.73;15.77;;;4.10;99.90;;;;;;4151803;28;20376;-57
2024/03/07 06:08:35;;;;;;;28.80;15.37;;;4.10;99.90;;;;;;4161753;28;20275;-59
2024/03/07 06:10:36;;;;;;;34.63;17.23;;;4.10;99.90;;;;;;4159051;28;20271;-53
2024/03/07 06:12:40;;;;;;;28.90;16.53;;;4.10;99.90;;;;;;4160190;28;20329;-57
2024/03/07 06:14:42;;;;;;;32.93;16.57;;;4.10;99.90;;;;;;4160430;28;20266;-52
2024/03/07 06:16:44;;;;;;;25.20;15.37;;;4.10;99.90;;;;;;4159877;28;20324;-57
2024/03/07 06:18:47;;;;;;;27.50;15.03;;;4.20;99.90;;;;;;4160981;28;20328;-57
2024/03/07 06:20:48;;;;;;;30.23;16.40;;;4.20;99.90;;;;;;4160618;28;20302;-57
2024/03/07 06:22:50;;;;;;;25.80;14.90;;;4.20;99.90;;;;;;4160572;28;20263;-59
2024/03/07 06:24:51;;;;;;;35.47;17.27;;;4.20;99.90;;;;;;4158686;28;20293;-56
2024/03/07 06:27:03;;;;;;;25.80;15.10;;;4.20;99.90;;;;;;4161265;28;20735;-57
2024/03/07 06:29:05;;;;;;;27.20;14.23;;;4.20;99.90;;;;;;4159947;28;20267;-58
2024/03/07 06:31:07;;;;;;;30.40;13.70;;;4.20;99.90;;;;;;4143654;28;20276;-60
2024/03/07 06:33:19;;;;;;;26.13;13.80;;;4.20;99.90;;;;;;4159601;28;20769;-57
2024/03/07 06:35:21;;;;;;;26.43;15.00;;;4.20;99.90;;;;;;4160669;28;20328;-55
2024/03/07 06:37:22;;;;;;;23.27;13.87;;;4.20;99.90;;;;;;4159261;28;20274;-56
2024/03/07 06:39:25;;;;;;;30.30;16.23;;;4.20;99.90;;;;;;4159751;28;20371;-54
2024/03/07 06:41:26;;;;;;;29.03;15.20;;;4.30;99.90;;;;;;4159463;28;20340;-56
2024/03/07 06:43:29;;;;;;;25.30;14.90;;;4.30;99.90;;;;;;4160335;28;20813;-54
2024/03/07 06:45:31;;;;;;;23.60;14.90;;;4.30;99.90;;;;;;4160007;28;20619;-54
2024/03/07 06:47:32;;;;;;;25.67;14.20;;;4.30;99.90;;;;;;4161336;28;20320;-56
2024/03/07 06:49:33;;;;;;;26.37;13.53;;;4.30;99.90;;;;;;4159441;28;20549;-61
2024/03/07 06:51:34;;;;;;;27.50;14.10;;;4.40;99.90;;;;;;4160781;28;20275;-56
2024/03/07 06:53:37;;;;;;;26.30;14.50;;;4.40;99.90;;;;;;4159105;28;20279;-58
2024/03/07 06:55:38;;;;;;;25.33;14.30;;;4.40;99.90;;;;;;4160076;28;20336;-57
2024/03/07 06:57:39;;;;;;;22.70;13.57;;;4.40;99.90;;;;;;4159802;28;20277;-54
2024/03/07 06:59:40;;;;;;;25.07;13.70;;;4.40;99.90;;;;;;4159562;28;20372;-55
2024/03/07 07:01:42;;;;;;;28.33;14.33;;;4.40;99.90;;;;;;4160217;28;20317;-60
2024/03/07 07:03:44;;;;;;;25.17;14.17;;;4.50;99.90;;;;;;4158902;28;20344;-55
2024/03/07 07:05:45;;;;;;;24.20;13.23;;;4.40;99.90;;;;;;4143575;28;20385;-53
2024/03/07 07:07:50;;;;;;;23.93;12.47;;;4.40;99.90;;;;;;4159342;28;20275;-62
2024/03/07 07:09:53;;;;;;;22.13;12.83;;;4.40;99.90;;;;;;4159940;28;20270;-59
2024/03/07 07:11:54;;;;;;;26.07;13.40;;;4.50;99.90;;;;;;4159440;28;20374;-58
2024/03/07 07:13:55;;;;;;;22.17;12.37;;;4.50;99.90;;;;;;4142603;28;20287;-57
2024/03/07 07:15:57;;;;;;;23.57;13.43;;;4.50;99.90;;;;;;4159517;28;20470;-59
2024/03/07 07:17:59;;;;;;;23.23;13.10;;;4.50;99.90;;;;;;4160554;28;20136;-52
2024/03/07 07:20:00;;;;;;;25.57;13.47;;;4.50;99.90;;;;;;4158507;28;20353;-59
2024/03/07 07:22:01;;;;;;;23.07;12.33;;;4.50;99.90;;;;;;4161299;28;20267;-59
2024/03/07 07:24:04;;;;;;;25.60;13.30;;;4.60;99.90;;;;;;4158624;28;20270;-53
2024/03/07 07:26:05;;;;;;;25.93;13.57;;;4.60;99.90;;;;;;4159689;28;20324;-54
2024/03/07 07:28:07;;;;;;;32.23;14.30;;;4.60;99.90;;;;;;4159722;28;20287;-54
2024/03/07 07:30:10;;;;;;;21.57;12.60;;;4.60;99.90;;;;;;4158991;28;20274;-55
2024/03/07 07:32:12;;;;;;;21.87;13.53;;;4.70;99.90;;;;;;4158664;28;20432;-57
2024/03/07 07:34:13;;;;;;;27.23;14.20;;;4.70;99.90;;;;;;4159074;28;20686;-57
2024/03/07 07:36:14;;;;;;;20.57;12.47;;;4.70;99.90;;;;;;4160127;28;20073;-57
2024/03/07 07:38:15;;;;;;;22.00;12.13;;;4.70;99.90;;;;;;4159612;28;20037;-56
2024/03/07 07:40:18;;;;;;;22.40;11.57;;;4.80;99.90;;;;;;4160429;28;20298;-57
2024/03/07 07:42:20;;;;;;;23.13;10.87;;;4.80;99.90;;;;;;4159168;28;20068;-51
2024/03/07 07:44:21;;;;;;;20.43;12.10;;;4.80;99.90;;;;;;4160625;28;20267;-54
2024/03/07 07:46:23;;;;;;;18.53;11.30;;;4.80;99.90;;;;;;4158727;28;20440;-56
2024/03/07 07:48:24;;;;;;;22.57;11.97;;;4.80;99.90;;;;;;4160793;28;20320;-56
2024/03/07 07:50:25;;;;;;;20.10;11.83;;;4.80;99.90;;;;;;4158487;28;20263;-58
2024/03/07 07:52:27;;;;;;;22.57;11.47;;;4.80;99.90;;;;;;4161087;28;20267;-56
2024/03/07 07:54:28;;;;;;;21.60;11.27;;;4.80;99.90;;;;;;4158202;28;20513;-57
2024/03/07 07:56:30;;;;;;;19.53;10.17;;;4.90;99.90;;;;;;4159765;28;20095;-58
2024/03/07 07:58:31;;;;;;;21.10;11.30;;;4.90;99.90;;;;;;4158042;28;20658;-58
2024/03/07 08:00:32;;;;;;;21.50;11.27;;;4.90;99.90;;;;;;4158317;28;20778;-57
2024/03/07 08:02:33;;;;;;;21.20;11.53;;;5.00;99.90;;;;;;4159075;28;20038;-57
2024/03/07 08:04:35;;;;;;;19.47;10.73;;;5.10;99.90;;;;;;4157982;28;20041;-53
2024/03/07 08:06:36;;;;;;;17.30;10.27;;;5.10;99.90;;;;;;4159399;28;20091;-58
2024/03/07 08:08:37;;;;;;;17.93;10.30;;;5.10;99.90;;;;;;4161567;28;20559;-57
2024/03/07 08:10:39;;;;;;;18.47;11.47;;;5.10;99.90;;;;;;4163599;28;20797;-58
2024/03/07 08:12:43;;;;;;;15.83;10.00;;;5.10;99.90;;;;;;4161117;28;20552;-63
2024/03/07 08:14:44;;;;;;;20.50;11.13;;;5.10;99.90;;;;;;4163564;28;20068;-55
2024/03/07 08:16:50;;;;;;;18.20;9.63;;;5.20;99.90;;;;;;4162276;28;20265;-55
2024/03/07 08:18:51;;;;;;;16.10;9.77;;;5.20;99.90;;;;;;4162770;28;20025;-62
2024/03/07 08:20:52;;;;;;;21.43;10.80;;;5.20;99.90;;;;;;4161042;28;20111;-62
2024/03/07 08:22:55;;;;;;;15.90;10.47;;;5.20;99.90;;;;;;4162726;28;20053;-62
2024/03/07 08:24:57;;;;;;;18.80;10.20;;;5.30;99.90;;;;;;4161237;28;20179;-59
2024/03/07 08:26:58;;;;;;;17.13;9.73;;;5.30;99.90;;;;;;4153946;28;20053;-62
2024/03/07 08:28:59;;;;;;;16.23;10.03;;;5.40;99.90;;;;;;4162233;28;20072;-55
2024/03/07 08:31:01;;;;;;;19.07;10.80;;;5.40;99.90;;;;;;4162821;28;20406;-62
2024/03/07 08:33:04;;;;;;;16.13;9.70;;;5.40;99.90;;;;;;4162086;28;20030;-57
2024/03/07 08:35:09;;;;;;;18.10;10.90;;;5.50;99.90;;;;;;4161686;28;20072;-60
2024/03/07 08:37:10;;;;;;;17.53;10.50;;;5.50;99.90;;;;;;4162193;28;20079;-62
2024/03/07 08:39:13;;;;;;;15.17;9.90;;;5.50;99.90;;;;;;4160202;28;20103;-59
2024/03/07 08:41:14;;;;;;;15.40;9.50;;;5.50;99.90;;;;;;4163034;28;20127;-56
2024/03/07 08:43:16;;;;;;;16.43;10.07;;;5.60;99.90;;;;;;4162190;28;20041;-61
2024/03/07 08:45:19;;;;;;;17.97;9.87;;;5.60;99.90;;;;;;4161642;28;20033;-63
2024/03/07 08:47:20;;;;;;;18.80;10.17;;;5.70;99.90;;;;;;4162361;28;20739;-62
2024/03/07 08:49:22;;;;;;;16.17;8.10;;;5.80;99.90;;;;;;4162733;28;20772;-61
2024/03/07 08:51:23;;;;;;;23.67;9.80;;;5.90;99.90;;;;;;4145224;28;20042;-57
2024/03/07 08:53:24;;;;;;;21.17;10.10;;;5.90;99.90;;;;;;4156996;28;20087;-54
2024/03/07 08:55:26;;;;;;;15.73;9.63;;;5.90;99.90;;;;;;4161758;28;20034;-61
2024/03/07 08:57:27;;;;;;;24.30;10.03;;;5.90;99.90;;;;;;4162772;28;20037;-62
2024/03/07 08:59:28;;;;;;;19.87;8.97;;;5.90;99.90;;;;;;4160515;28;20041;-60
2024/03/07 09:01:30;;;;;;;13.20;7.90;;;5.90;99.90;;;;;;4161603;28;20118;-62
2024/03/07 09:03:31;;;;;;;19.87;8.33;;;5.80;99.90;;;;;;4161646;28;20026;-62
2024/03/07 09:05:33;;;;;;;15.70;9.20;;;5.90;99.90;;;;;;4160777;28;20080;-62
2024/03/07 09:07:34;;;;;;;15.17;8.90;;;5.80;99.90;;;;;;4161106;28;20042;-62
2024/03/07 09:09:35;;;;;;;14.63;7.40;;;5.80;99.90;;;;;;4161314;28;20119;-60
2024/03/07 09:11:37;;;;;;;14.80;9.07;;;5.80;99.90;;;;;;4162450;28;20047;-62
2024/03/07 09:13:39;;;;;;;16.43;8.57;;;5.80;99.90;;;;;;4160194;28;20033;-62
2024/03/07 09:15:41;;;;;;;15.70;8.90;;;5.80;99.90;;;;;;4143675;28;20449;-61
2024/03/07 09:17:43;;;;;;;15.37;8.00;;;5.80;99.90;;;;;;4160346;28;20049;-59
2024/03/07 09:19:45;;;;;;;14.47;8.90;;;5.80;99.90;;;;;;4161395;28;20449;-59
2024/03/07 09:21:46;;;;;;;22.47;9.03;;;5.80;99.90;;;;;;4161415;28;20033;-61
2024/03/07 09:23:48;;;;;;;16.57;8.57;;;5.80;99.90;;;;;;4161866;28;20042;-53
2024/03/07 09:25:49;;;;;;;15.07;8.77;;;5.90;99.90;;;;;;4160665;28;20513;-58
2024/03/07 09:27:50;;;;;;;14.97;9.00;;;5.90;99.90;;;;;;4161815;28;20082;-59
2024/03/07 09:29:51;;;;;;;18.30;8.10;;;6.00;99.90;;;;;;4143159;28;20041;-58
2024/03/07 09:31:53;;;;;;;16.00;8.33;;;6.00;99.90;;;;;;4161836;28;20029;-57
2024/03/07 09:33:54;;;;;;;16.20;8.80;;;6.00;99.90;;;;;;4159336;28;20083;-58
2024/03/07 09:35:58;;;;;;;12.50;8.57;;;6.10;99.90;;;;;;4161499;28;20079;-61
2024/03/07 09:38:00;;;;;;;16.30;7.77;;;6.10;99.90;;;;;;4142521;28;20089;-58
2024/03/07 09:40:02;;;;;;;15.70;8.53;;;6.10;99.90;;;;;;4156520;28;20137;-58
2024/03/07 09:42:09;;;;;;;12.10;7.60;;;6.10;99.90;;;;;;4160453;28;20095;-56
2024/03/07 09:44:22;;;;;;;17.93;9.63;;;6.10;99.90;;;;;;4154824;28;20053;-58
2024/03/07 09:46:24;;;;;;;14.40;8.13;;;6.10;99.90;;;;;;4146749;28;20441;-58
2024/03/07 09:48:27;;;;;;;14.87;7.90;;;6.10;99.90;;;;;;4159516;28;20088;-58
2024/03/07 09:50:30;;;;;;;13.00;8.27;;;6.10;99.90;;;;;;4160564;28;20095;-60
2024/03/07 09:52:31;;;;;;;16.07;8.03;;;6.10;99.90;;;;;;4160165;28;20091;-63
2024/03/07 09:54:33;;;;;;;16.83;8.80;;;6.10;99.90;;;;;;4162375;28;20029;-65
2024/03/07 09:56:36;;;;;;;14.40;7.43;;;6.20;99.90;;;;;;4142399;28;20570;-60
2024/03/07 09:58:38;;;;;;;13.00;7.47;;;6.20;99.90;;;;;;4160549;28;20103;-56
2024/03/07 10:00:40;;;;;;;14.37;7.50;;;6.20;99.90;;;;;;4159091;28;20053;-59
2024/03/07 10:02:44;;;;;;;17.13;8.33;;;6.20;99.90;;;;;;4160345;28;20041;-59
2024/03/07 10:04:48;;;;;;;12.23;8.50;;;6.30;99.90;;;;;;4159287;28;20460;-57
2024/03/07 10:06:52;;;;;;;16.83;8.20;;;6.20;99.90;;;;;;4160605;28;20045;-58
2024/03/07 10:08:54;;;;;;;14.63;8.07;;;6.30;99.90;;;;;;4158931;28;20421;-53
2024/03/07 10:10:56;;;;;;;15.70;8.83;;;6.30;99.90;;;;;;4141871;28;20057;-58
2024/03/07 10:12:58;;;;;;;19.60;9.00;;;6.40;99.90;;;;;;4159803;28;20433;-60
2024/03/07 10:15:03;;;;;;;14.40;8.57;;;6.40;99.90;;;;;;4159474;28;20033;-58
2024/03/07 10:17:05;;;;;;;12.50;7.70;;;6.40;99.90;;;;;;4141563;28;20553;-60
2024/03/07 10:19:07;;;;;;;15.70;8.23;;;6.40;99.90;;;;;;4159958;28;20474;-59
2024/03/07 10:21:11;;;;;;;15.73;8.63;;;6.40;99.90;;;;;;4160111;28;20061;-58
2024/03/07 10:23:12;;;;;;;14.80;9.03;;;6.40;99.90;;;;;;4160144;28;20058;-60
2024/03/07 10:25:14;;;;;;;12.97;8.47;;;6.40;99.90;;;;;;4160085;28;20505;-60
2024/03/07 10:27:19;;;;;;;14.23;8.20;;;6.50;99.90;;;;;;4159562;28;20095;-60